LTBU/TEQ METAR and TAF weather

Enter ICAO airport designator
Station Type Date Time Source
LTBU METAR 2021/05/13 05:20 UTC NOAA

LTBU 130520Z 11003KT 060V150 CAVOK 15/07 Q1008


Station Type Date Time Source
LTBU Decoded METAR 2021/05/13 05:20 UTC NOAA

Corlu, Turkey (LTBU) 41-08N 027-55E
May 13, 2021 - 01:20 AM EDT / 2021.05.13 0520 UTC
Wind: from the ESE (110 degrees) at 3 MPH (3 KT) (direction variable):0
Visibility: greater than 7 mile(s):0
Temperature: 59 F (15 C)
Dew Point: 44 F (7 C)
Relative Humidity: 58%
Pressure (altimeter): 29.77 in. Hg (1008 hPa)
ob: LTBU 130520Z 11003KT 060V150 CAVOK 15/07 Q1008
cycle: 5

Station Type Date Time Source
LTBU TAF 2021/05/13 06:03 UTC NOAA

TAF LTBU 130440Z 1306/1406 VRB02KT CAVOK
BECMG 1308/1312 21012KT
BECMG 1317/1321 VRB02KT

Example: see airport list